createdAt,value
2023-03-23T00:02:01.688Z,509.00
2023-03-23T00:06:01.675Z,505.00
2023-03-23T00:10:01.710Z,503.00
2023-03-23T00:14:01.664Z,502.00
2023-03-23T00:18:01.690Z,505.00
2023-03-23T00:22:01.665Z,505.00
2023-03-23T00:26:01.665Z,506.00
2023-03-23T00:30:01.682Z,503.00
2023-03-23T00:34:01.679Z,504.00
2023-03-23T00:38:01.692Z,505.00
2023-03-23T00:42:01.723Z,506.00
2023-03-23T00:46:01.717Z,506.00
2023-03-23T00:50:01.742Z,503.00
2023-03-23T00:54:01.807Z,508.00
2023-03-23T00:58:01.774Z,503.00
2023-03-23T01:02:01.776Z,509.00
2023-03-23T01:06:01.791Z,504.00
2023-03-23T01:10:01.837Z,504.00
2023-03-23T01:14:01.846Z,511.00
2023-03-23T01:18:01.882Z,504.00
2023-03-23T01:22:01.919Z,505.00
2023-03-23T01:26:01.952Z,506.00
2023-03-23T01:30:01.997Z,504.00
2023-03-23T01:34:02.066Z,504.00
2023-03-23T01:38:02.083Z,507.00
2023-03-23T01:42:02.282Z,508.00
2023-03-23T01:46:02.176Z,507.00
2023-03-23T01:50:02.256Z,508.00
2023-03-23T01:54:02.319Z,501.00
2023-03-23T01:58:02.372Z,501.00
2023-03-23T02:02:02.384Z,505.00
2023-03-23T02:06:02.502Z,507.00
2023-03-23T02:10:02.505Z,504.00
2023-03-23T02:14:02.562Z,509.00
2023-03-23T02:18:02.630Z,508.00
2023-03-23T02:22:02.665Z,504.00
2023-03-23T02:26:02.727Z,509.00
2023-03-23T02:30:02.812Z,503.00
2023-03-23T02:34:02.892Z,503.00
2023-03-23T02:38:02.931Z,501.00
2023-03-23T02:42:02.966Z,505.00
2023-03-23T02:46:03.843Z,505.00
2023-03-23T02:50:02.780Z,512.00
2023-03-23T02:54:02.711Z,505.00
2023-03-23T02:58:02.590Z,505.00
2023-03-23T03:02:02.587Z,513.00
2023-03-23T03:06:02.683Z,505.00
2023-03-23T03:10:02.733Z,503.00
2023-03-23T03:14:02.837Z,509.00
2023-03-23T03:18:02.859Z,509.00
2023-03-23T03:22:02.964Z,511.00
2023-03-23T03:26:03.022Z,502.00
2023-03-23T03:30:03.077Z,506.00
2023-03-23T03:34:03.156Z,501.00
2023-03-23T03:38:03.217Z,505.00
2023-03-23T03:42:03.272Z,501.00
2023-03-23T03:46:03.316Z,507.00
2023-03-23T03:50:03.405Z,512.00
2023-03-23T03:54:03.412Z,509.00
2023-03-23T03:58:03.527Z,506.00
2023-03-23T04:02:03.572Z,507.00
2023-03-23T04:06:03.646Z,506.00
2023-03-23T04:10:03.712Z,503.00
2023-03-23T04:14:03.764Z,505.00
2023-03-23T04:18:03.836Z,512.00
2023-03-23T04:22:03.894Z,504.00
2023-03-23T04:26:03.969Z,508.00
2023-03-23T04:30:04.070Z,505.00
2023-03-23T04:34:04.145Z,509.00
2023-03-23T04:38:04.194Z,509.00
2023-03-23T04:42:04.277Z,502.00
2023-03-23T04:46:04.401Z,503.00
2023-03-23T04:50:04.491Z,501.00
2023-03-23T04:54:04.547Z,504.00
2023-03-23T04:58:04.633Z,505.00
2023-03-23T05:02:14.365Z,500.00
2023-03-23T05:06:05.679Z,505.00
2023-03-23T05:10:04.621Z,505.00
2023-03-23T05:14:04.488Z,505.00
2023-03-23T05:18:04.541Z,506.00
2023-03-23T05:22:04.676Z,507.00
2023-03-23T05:26:04.749Z,506.00
2023-03-23T05:30:04.838Z,509.00
2023-03-23T05:34:04.948Z,507.00
2023-03-23T05:38:05.015Z,506.00
2023-03-23T05:42:05.096Z,510.00
2023-03-23T05:46:05.173Z,505.00
2023-03-23T05:50:05.254Z,505.00
2023-03-23T05:54:05.343Z,513.00
2023-03-23T05:58:05.395Z,518.00
2023-03-23T06:02:05.491Z,513.00
2023-03-23T06:06:05.554Z,512.00
2023-03-23T06:10:05.658Z,515.00
2023-03-23T06:14:05.677Z,509.00
2023-03-23T06:18:05.735Z,515.00
2023-03-23T06:22:05.813Z,514.00
2023-03-23T06:26:05.861Z,512.00
2023-03-23T06:30:05.961Z,516.00
2023-03-23T06:34:06.052Z,517.00
2023-03-23T06:38:06.363Z,513.00
2023-03-23T06:42:06.155Z,534.00
2023-03-23T06:46:06.388Z,563.00
2023-03-23T06:50:06.373Z,566.00
2023-03-23T06:54:06.361Z,595.00
2023-03-23T06:58:06.137Z,641.00
2023-03-23T07:02:06.405Z,663.00
2023-03-23T07:06:07.029Z,760.00
2023-03-23T07:10:06.383Z,856.00
2023-03-23T07:14:06.319Z,966.00
2023-03-23T07:18:06.469Z,1038.00
2023-03-23T07:22:06.629Z,1200.00
2023-03-23T07:26:06.683Z,1187.00
2023-03-23T07:30:06.798Z,1258.00
2023-03-23T07:34:06.934Z,1312.00
2023-03-23T07:38:07.066Z,1392.00
2023-03-23T07:42:07.379Z,1498.00
2023-03-23T07:46:07.393Z,1526.00
2023-03-23T07:50:07.352Z,1544.00
2023-03-23T07:54:07.384Z,886.00
2023-03-23T07:58:07.883Z,847.00
2023-03-23T08:02:07.459Z,958.00
2023-03-23T08:06:07.927Z,1022.00
2023-03-23T08:10:07.572Z,1073.00
2023-03-23T08:14:07.909Z,1172.00
2023-03-23T08:18:07.335Z,1268.00
2023-03-23T08:22:07.239Z,1306.00
2023-03-23T08:26:07.129Z,1370.00
2023-03-23T08:30:07.412Z,1451.00
2023-03-23T08:34:06.888Z,1488.00
2023-03-23T08:38:06.915Z,1524.00
2023-03-23T08:42:06.937Z,1606.00
2023-03-23T08:46:06.935Z,1633.00
2023-03-23T08:50:06.321Z,1589.00
2023-03-23T08:54:06.403Z,1578.00
2023-03-23T08:58:06.454Z,1530.00
2023-03-23T09:02:06.419Z,1521.00
2023-03-23T09:06:06.406Z,1515.00
2023-03-23T09:10:06.444Z,1496.00
2023-03-23T09:14:06.612Z,1490.00
2023-03-23T09:18:06.925Z,1432.00
2023-03-23T09:22:06.360Z,1395.00
2023-03-23T09:26:06.212Z,1386.00
2023-03-23T09:30:06.097Z,1380.00
2023-03-23T09:34:06.059Z,1340.00
2023-03-23T09:38:06.441Z,1303.00
2023-03-23T09:42:05.888Z,1325.00
2023-03-23T09:46:05.943Z,1367.00
2023-03-23T09:50:05.947Z,1419.00
2023-03-23T09:54:06.450Z,1184.00
2023-03-23T09:58:06.488Z,918.00
2023-03-23T10:02:06.077Z,1104.00
2023-03-23T10:06:06.030Z,1150.00
2023-03-23T10:10:05.962Z,1131.00
2023-03-23T10:14:05.867Z,1154.00
2023-03-23T10:18:05.783Z,1198.00
2023-03-23T10:22:05.682Z,1280.00
2023-03-23T10:26:05.609Z,1347.00
2023-03-23T10:30:05.545Z,1415.00
2023-03-23T10:34:05.434Z,1470.00
2023-03-23T10:38:05.310Z,1513.00
2023-03-23T10:42:05.447Z,1542.00
2023-03-23T10:46:05.740Z,1311.00
2023-03-23T10:50:05.456Z,1394.00
2023-03-23T10:54:05.462Z,1412.00
2023-03-23T10:58:04.947Z,1383.00
2023-03-23T11:02:04.884Z,1388.00
2023-03-23T11:06:05.028Z,1341.00
2023-03-23T11:10:04.683Z,1292.00
2023-03-23T11:14:04.622Z,1282.00
2023-03-23T11:18:04.989Z,1234.00
2023-03-23T11:22:04.446Z,1204.00
2023-03-23T11:26:04.476Z,1198.00
2023-03-23T11:30:04.223Z,1208.00
2023-03-23T11:34:06.230Z,1207.00
2023-03-23T11:38:04.504Z,1194.00
2023-03-23T11:42:09.569Z,1155.00
2023-03-23T11:46:04.899Z,861.00
2023-03-23T11:50:03.769Z,875.00
2023-03-23T11:54:03.729Z,964.00
2023-03-23T11:58:03.603Z,746.00
2023-03-23T12:02:16.770Z,714.00
2023-03-23T12:06:04.499Z,722.00
2023-03-23T12:10:03.993Z,602.00
2023-03-23T12:14:03.608Z,619.00
2023-03-23T12:18:03.744Z,619.00
2023-03-23T12:22:03.820Z,502.00
2023-03-23T12:26:04.000Z,536.00
2023-03-23T12:30:04.540Z,475.00
2023-03-23T12:34:04.483Z,547.00
2023-03-23T12:38:04.438Z,609.00
2023-03-23T12:42:04.545Z,506.00
2023-03-23T12:46:05.010Z,597.00
2023-03-23T12:50:04.888Z,626.00
2023-03-23T12:54:05.516Z,590.00
2023-03-23T12:58:04.916Z,568.00
2023-03-23T13:02:05.015Z,575.00
2023-03-23T13:06:04.761Z,552.00
2023-03-23T13:10:05.390Z,576.00
2023-03-23T13:14:04.612Z,614.00
2023-03-23T13:18:05.029Z,563.00
2023-03-23T13:22:04.530Z,613.00
2023-03-23T13:26:04.559Z,532.00
2023-03-23T13:30:04.506Z,501.00
2023-03-23T13:34:04.576Z,585.00
2023-03-23T13:38:04.734Z,582.00
2023-03-23T13:42:04.832Z,541.00
2023-03-23T13:46:05.001Z,631.00
2023-03-23T13:50:05.166Z,611.00
2023-03-23T13:54:05.268Z,660.00
2023-03-23T13:58:05.430Z,743.00
2023-03-23T14:02:05.526Z,778.00
2023-03-23T14:06:05.675Z,788.00
2023-03-23T14:10:05.783Z,764.00
2023-03-23T14:14:06.065Z,644.00
2023-03-23T14:18:06.556Z,753.00
2023-03-23T14:22:06.236Z,788.00
2023-03-23T14:30:06.343Z,469.00
2023-03-23T14:34:06.311Z,625.00
2023-03-23T14:38:06.212Z,1367.00
2023-03-23T14:46:06.194Z,1481.00
2023-03-23T14:54:06.263Z,1541.00
2023-03-23T14:58:06.226Z,1605.00
2023-03-23T15:02:06.619Z,1486.00
2023-03-23T15:06:06.108Z,1529.00
2023-03-23T15:10:06.021Z,1527.00
2023-03-23T15:14:06.598Z,1577.00
2023-03-23T15:18:06.435Z,1474.00
2023-03-23T15:22:06.587Z,1473.00
2023-03-23T15:26:06.751Z,1507.00
2023-03-23T15:30:06.927Z,1483.00
2023-03-23T15:34:07.097Z,1418.00
2023-03-23T15:38:07.227Z,1416.00
2023-03-23T15:42:07.385Z,1410.00
2023-03-23T15:46:07.550Z,1330.00
2023-03-23T15:50:07.690Z,1334.00
2023-03-23T15:54:12.463Z,1303.00
2023-03-23T15:58:08.808Z,1330.00
2023-03-23T16:02:07.767Z,1315.00
2023-03-23T16:06:07.740Z,1319.00
2023-03-23T16:10:07.949Z,1315.00
2023-03-23T16:14:08.107Z,1280.00
2023-03-23T16:18:08.134Z,1264.00
2023-03-23T16:22:07.989Z,1266.00
2023-03-23T16:26:07.935Z,1270.00
2023-03-23T16:30:07.832Z,1260.00
2023-03-23T16:34:07.769Z,1273.00
2023-03-23T16:38:09.209Z,1221.00
2023-03-23T16:42:07.616Z,1258.00
2023-03-23T16:46:07.567Z,1242.00
2023-03-23T16:50:07.473Z,1231.00
2023-03-23T16:54:07.638Z,1236.00
2023-03-23T16:58:16.551Z,1221.00
2023-03-23T17:02:08.499Z,1231.00
2023-03-23T17:06:07.674Z,1220.00
2023-03-23T17:10:07.494Z,1208.00
2023-03-23T17:14:07.429Z,1182.00
2023-03-23T17:18:07.384Z,1173.00
2023-03-23T17:22:07.287Z,1170.00
2023-03-23T17:26:07.265Z,1169.00
2023-03-23T17:30:07.167Z,1142.00
2023-03-23T17:34:07.113Z,1137.00
2023-03-23T17:38:07.026Z,1129.00
2023-03-23T17:42:06.956Z,1102.00
2023-03-23T17:46:06.918Z,1115.00
2023-03-23T17:50:11.496Z,1100.00
2023-03-23T17:54:07.756Z,1094.00
2023-03-23T17:58:06.723Z,1086.00
2023-03-23T18:02:06.801Z,1081.00
2023-03-23T18:06:06.924Z,1062.00
2023-03-23T18:10:07.126Z,1063.00
2023-03-23T18:14:07.334Z,1067.00
2023-03-23T18:18:07.544Z,1048.00
2023-03-23T18:22:07.521Z,1043.00
2023-03-23T18:26:07.439Z,1030.00
2023-03-23T18:30:07.377Z,1023.00
2023-03-23T18:34:07.359Z,1006.00
2023-03-23T18:38:07.267Z,1014.00
2023-03-23T18:42:07.195Z,982.00
2023-03-23T18:46:07.219Z,989.00
2023-03-23T18:50:07.149Z,970.00
2023-03-23T18:54:07.012Z,980.00
2023-03-23T18:58:07.115Z,968.00
2023-03-23T19:02:08.222Z,958.00
2023-03-23T19:06:07.309Z,961.00
2023-03-23T19:10:07.234Z,959.00
2023-03-23T19:14:07.204Z,956.00
2023-03-23T19:18:07.140Z,960.00
2023-03-23T19:22:07.083Z,958.00
2023-03-23T19:26:07.045Z,941.00
2023-03-23T19:30:06.978Z,958.00
2023-03-23T19:34:06.925Z,960.00
2023-03-23T19:38:06.874Z,962.00
2023-03-23T19:42:07.198Z,960.00
2023-03-23T19:46:06.932Z,952.00
2023-03-23T19:50:07.016Z,950.00
2023-03-23T19:54:06.860Z,940.00
2023-03-23T19:58:06.786Z,930.00
2023-03-23T20:02:06.824Z,920.00
2023-03-23T20:06:07.162Z,903.00
2023-03-23T20:10:06.694Z,899.00
2023-03-23T20:14:06.973Z,899.00
2023-03-23T20:18:06.741Z,884.00
2023-03-23T20:22:06.640Z,885.00
2023-03-23T20:26:06.871Z,869.00
2023-03-23T20:30:06.959Z,866.00
2023-03-23T20:34:07.112Z,863.00
2023-03-23T20:38:07.207Z,861.00
2023-03-23T20:42:07.306Z,845.00
2023-03-23T20:46:07.470Z,843.00
2023-03-23T20:50:07.557Z,840.00
2023-03-23T20:54:07.672Z,833.00
2023-03-23T20:58:07.700Z,819.00
2023-03-23T21:02:07.751Z,808.00
2023-03-23T21:06:07.911Z,801.00
2023-03-23T21:10:08.094Z,797.00
2023-03-23T21:14:08.115Z,790.00
2023-03-23T21:18:08.235Z,786.00
2023-03-23T21:22:08.334Z,784.00
2023-03-23T21:26:08.328Z,769.00
2023-03-23T21:30:08.387Z,759.00
2023-03-23T21:34:08.508Z,776.00
2023-03-23T21:38:08.563Z,771.00
2023-03-23T21:42:08.664Z,749.00
2023-03-23T21:46:08.757Z,747.00
2023-03-23T21:50:08.795Z,741.00
2023-03-23T21:54:08.953Z,729.00
2023-03-23T21:58:09.001Z,719.00
2023-03-23T22:02:09.069Z,712.00
2023-03-23T22:06:09.206Z,714.00
2023-03-23T22:10:09.255Z,706.00
2023-03-23T22:14:09.331Z,705.00
2023-03-23T22:18:09.452Z,700.00
2023-03-23T22:22:09.465Z,688.00
2023-03-23T22:26:09.575Z,686.00
2023-03-23T22:30:09.627Z,669.00
2023-03-23T22:34:09.748Z,665.00
2023-03-23T22:38:09.773Z,662.00
2023-03-23T22:42:11.755Z,665.00
2023-03-23T22:46:09.892Z,662.00
2023-03-23T22:50:09.804Z,658.00
2023-03-23T22:54:09.723Z,651.00
2023-03-23T22:58:09.683Z,652.00
2023-03-23T23:02:09.594Z,646.00
2023-03-23T23:06:09.553Z,646.00
2023-03-23T23:10:09.501Z,642.00
2023-03-23T23:14:09.427Z,639.00
2023-03-23T23:18:09.361Z,644.00
2023-03-23T23:22:18.288Z,639.00
2023-03-23T23:26:10.235Z,636.00
2023-03-23T23:30:09.157Z,635.00
2023-03-23T23:34:09.104Z,631.00
2023-03-23T23:38:09.160Z,626.00
2023-03-23T23:42:09.184Z,632.00
2023-03-23T23:46:09.287Z,626.00
2023-03-23T23:50:09.416Z,627.00
2023-03-23T23:54:09.499Z,622.00
2023-03-23T23:58:09.588Z,614.00
